Time;durP1;ratioP1;P1;durP2;ratioP2;P2;SDS_P1;SDS_P2;PMS_P1;PMS_P2;Temp;Humidity;BMP_temperature;BMP_pressure;BME280_temperature;BME280_humidity;BME280_pressure;Samples;Min_cycle;Max_cycle;Signal;HPM_P1;HPM_P2
2023/07/23 00:01:05;;;;;;;3.63;3.30;;;;;;;18.27;73.25;98214.66;4119584;28;20816;-52
2023/07/23 00:03:07;;;;;;;2.95;2.75;;;;;;;18.25;73.74;98211.38;4121956;28;20297;-50
2023/07/23 00:05:09;;;;;;;2.55;2.35;;;;;;;18.25;73.83;98214.16;4110692;28;20214;-52
2023/07/23 00:07:11;;;;;;;3.95;3.58;;;;;;;18.18;74.03;98216.50;4144706;28;20256;-49
2023/07/23 00:09:14;;;;;;;4.45;3.17;;;;;;;18.03;74.42;98212.06;4111549;28;20237;-49
2023/07/23 00:11:16;;;;;;;3.80;3.40;;;;;;;18.03;74.72;98216.78;4115944;28;20299;-49
2023/07/23 00:13:17;;;;;;;3.40;2.97;;;;;;;18.00;75.14;98214.63;4128749;28;20229;-48
2023/07/23 00:15:19;;;;;;;3.40;3.10;;;;;;;17.96;75.47;98208.03;4132231;28;20210;-50
2023/07/23 00:17:21;;;;;;;4.20;3.80;;;;;;;17.85;75.88;98206.59;4130231;28;20802;-50
2023/07/23 00:19:23;;;;;;;3.58;3.28;;;;;;;17.89;76.14;98210.38;4130406;28;20229;-48
2023/07/23 00:21:25;;;;;;;5.20;3.30;;;;;;;17.77;76.56;98198.97;4134093;28;20229;-52
2023/07/23 00:23:27;;;;;;;5.32;2.78;;;;;;;17.78;76.45;98208.94;4128945;28;20987;-58
2023/07/23 00:25:29;;;;;;;4.00;3.50;;;;;;;17.66;76.83;98203.88;4129915;28;21663;-50
2023/07/23 00:27:31;;;;;;;5.03;3.55;;;;;;;17.61;76.76;98195.69;4129301;28;20210;-49
2023/07/23 00:29:32;;;;;;;3.70;3.05;;;;;;;17.62;76.63;98199.25;4144893;28;20276;-49
2023/07/23 00:31:34;;;;;;;3.55;3.25;;;;;;;17.68;76.62;98189.72;4128342;28;20202;-49
2023/07/23 00:33:36;;;;;;;2.95;2.65;;;;;;;17.77;75.94;98194.28;4129505;28;20214;-50
2023/07/23 00:35:38;;;;;;;3.28;2.97;;;;;;;17.78;75.44;98189.56;4144901;28;20635;-48
2023/07/23 00:37:40;;;;;;;3.58;2.90;;;;;;;17.75;75.26;98181.84;4128521;28;20221;-49
2023/07/23 00:39:41;;;;;;;4.47;4.18;;;;;;;17.73;75.20;98186.88;4127907;28;20237;-48
2023/07/23 00:41:43;;;;;;;3.47;3.13;;;;;;;17.72;75.09;98185.25;4126598;28;20229;-48
2023/07/23 00:43:45;;;;;;;7.32;3.78;;;;;;;17.72;75.13;98177.75;4113732;28;20222;-49
2023/07/23 00:45:47;;;;;;;3.35;3.05;;;;;;;17.74;75.32;98183.81;4112421;28;20206;-49
2023/07/23 00:47:49;;;;;;;3.20;2.90;;;;;;;17.72;75.38;98186.06;4119493;28;20696;-49
2023/07/23 00:49:51;;;;;;;3.92;3.20;;;;;;;17.69;75.71;98183.06;4129720;28;20230;-50
2023/07/23 00:51:53;;;;;;;3.47;2.75;;;;;;;17.68;76.34;98175.91;4145179;28;20208;-50
2023/07/23 00:53:55;;;;;;;3.38;3.15;;;;;;;17.63;76.41;98175.97;4128520;28;20209;-51
2023/07/23 00:55:58;;;;;;;3.97;3.55;;;;;;;17.62;76.48;98169.63;4128185;28;20206;-50
2023/07/23 00:58:00;;;;;;;4.40;2.67;;;;;;;17.65;76.92;98173.75;4120817;28;20298;-49
2023/07/23 01:00:05;;;;;;;3.40;3.10;;;;;;;17.59;76.96;98169.44;4112393;28;20285;-51
2023/07/23 01:02:07;;;;;;;4.50;3.40;;;;;;;17.58;77.44;98171.34;4126796;28;20269;-51
2023/07/23 01:04:09;;;;;;;4.72;3.08;;;;;;;17.53;77.65;98173.41;4127164;28;20747;-50
2023/07/23 01:06:11;;;;;;;3.20;2.90;;;;;;;17.42;77.87;98169.16;4127611;28;20214;-49
2023/07/23 01:08:14;;;;;;;3.20;2.78;;;;;;;17.36;78.23;98170.34;4127641;28;20217;-51
2023/07/23 01:10:16;;;;;;;3.35;3.05;;;;;;;17.29;78.57;98161.59;4121321;28;20214;-51
2023/07/23 01:12:18;;;;;;;6.32;3.50;;;;;;;17.37;78.60;98166.47;4121992;28;20219;-49
2023/07/23 01:14:20;;;;;;;4.15;3.42;;;;;;;17.18;78.78;98163.72;4120633;28;20213;-50
2023/07/23 01:16:23;;;;;;;3.10;2.80;;;;;;;17.13;78.90;98161.03;4124085;28;20206;-48
2023/07/23 01:18:26;;;;;;;5.38;3.33;;;;;;;17.08;79.32;98157.53;4144044;28;20600;-48
2023/07/23 01:20:27;;;;;;;4.55;3.08;;;;;;;17.09;79.63;98164.69;4105435;28;20740;-48
2023/07/23 01:22:29;;;;;;;3.28;2.88;;;;;;;17.09;79.98;98159.16;4128555;28;20664;-49
2023/07/23 01:24:31;;;;;;;3.40;3.10;;;;;;;17.03;79.97;98154.81;4121909;28;20277;-49
2023/07/23 01:26:36;;;;;;;4.00;3.70;;;;;;;17.01;80.21;98157.09;4142104;28;20213;-49
2023/07/23 01:28:38;;;;;;;3.55;3.25;;;;;;;16.99;80.51;98148.28;4125247;28;20241;-49
2023/07/23 01:30:39;;;;;;;3.42;3.15;;;;;;;16.97;80.77;98150.50;4126748;28;20216;-49
2023/07/23 01:32:42;;;;;;;4.00;3.13;;;;;;;16.85;80.79;98152.91;4120696;28;20206;-49
2023/07/23 01:34:44;;;;;;;4.60;3.28;;;;;;;16.76;80.64;98149.16;4110476;28;20742;-49
2023/07/23 01:36:46;;;;;;;3.45;3.15;;;;;;;16.78;81.08;98146.09;4111525;28;20211;-49
2023/07/23 01:38:48;;;;;;;3.63;3.33;;;;;;;16.69;81.10;98140.41;4111273;28;20238;-49
2023/07/23 01:40:50;;;;;;;4.15;3.75;;;;;;;16.68;81.24;98140.75;4127339;28;20288;-49
2023/07/23 01:42:52;;;;;;;3.47;3.17;;;;;;;16.74;81.30;98142.28;4127078;28;20241;-48
2023/07/23 01:44:54;;;;;;;3.90;3.40;;;;;;;16.70;81.44;98139.28;4113638;28;20207;-52
2023/07/23 01:46:55;;;;;;;4.38;2.88;;;;;;;16.67;81.71;98139.91;4117100;28;20206;-50
2023/07/23 01:48:57;;;;;;;3.25;2.65;;;;;;;16.74;81.63;98128.47;4120643;28;20254;-49
2023/07/23 01:50:59;;;;;;;9.35;3.40;;;;;;;16.59;81.74;98135.06;4103988;28;20219;-50
2023/07/23 01:53:01;;;;;;;3.58;3.28;;;;;;;16.59;81.74;98137.81;4132932;28;20218;-49
2023/07/23 01:55:03;;;;;;;4.18;3.78;;;;;;;16.58;82.03;98133.41;4129322;28;20220;-50
2023/07/23 01:57:05;;;;;;;6.45;3.55;;;;;;;16.63;82.21;98133.31;4130446;28;20259;-49
2023/07/23 01:59:08;;;;;;;7.90;3.10;;;;;;;16.59;81.94;98129.53;4127147;28;20233;-50
2023/07/23 02:01:10;;;;;;;3.17;2.85;;;;;;;16.53;82.11;98133.47;4125153;28;20234;-49
2023/07/23 02:03:12;;;;;;;3.50;3.20;;;;;;;16.54;81.65;98129.59;4122642;28;20213;-50
2023/07/23 02:05:15;;;;;;;3.28;2.97;;;;;;;16.57;82.10;98128.97;4141538;28;20320;-49
2023/07/23 02:07:17;;;;;;;3.85;3.55;;;;;;;16.49;82.09;98126.91;4142667;28;20269;-51
2023/07/23 02:09:19;;;;;;;3.80;3.28;;;;;;;16.45;82.27;98120.34;4124044;28;20230;-51
2023/07/23 02:11:20;;;;;;;5.82;3.47;;;;;;;16.46;82.56;98127.50;4128142;28;20210;-49
2023/07/23 02:13:22;;;;;;;3.75;3.45;;;;;;;16.40;82.80;98128.69;4132075;28;20218;-49
2023/07/23 02:15:24;;;;;;;3.53;3.22;;;;;;;16.44;83.17;98124.19;4128991;28;20244;-51
2023/07/23 02:17:25;;;;;;;3.38;3.08;;;;;;;16.43;83.40;98117.03;4124831;28;20313;-50
2023/07/23 02:19:27;;;;;;;4.07;3.42;;;;;;;16.32;83.10;98123.81;4127064;28;20234;-50
2023/07/23 02:21:30;;;;;;;3.42;3.13;;;;;;;16.34;83.38;98118.78;4127841;28;20237;-53
2023/07/23 02:23:32;;;;;;;3.70;3.40;;;;;;;16.26;83.63;98127.75;4126495;28;20264;-50
2023/07/23 02:25:39;;;;;;;4.90;3.42;;;;;;;16.33;83.66;98114.41;4143052;28;20264;-49
2023/07/23 02:27:41;;;;;;;7.40;2.97;;;;;;;16.26;84.67;98121.38;4129231;28;20205;-48
2023/07/23 02:29:43;;;;;;;3.42;3.15;;;;;;;16.16;84.83;98124.28;4126732;28;20625;-50
2023/07/23 02:31:45;;;;;;;4.80;3.33;;;;;;;16.10;84.89;98123.50;4126422;28;20257;-51
2023/07/23 02:33:46;;;;;;;4.05;3.65;;;;;;;16.10;85.15;98112.47;4143099;28;20264;-49
2023/07/23 02:35:49;;;;;;;3.75;3.45;;;;;;;16.02;85.06;98115.88;4125875;28;20703;-49
2023/07/23 02:37:51;;;;;;;4.32;3.92;;;;;;;16.23;85.01;98117.28;4127162;28;20222;-49
2023/07/23 02:39:53;;;;;;;3.92;3.53;;;;;;;16.09;85.22;98115.53;4125022;28;20251;-48
2023/07/23 02:41:55;;;;;;;3.90;3.60;;;;;;;16.01;84.97;98125.28;4142261;28;20228;-48
2023/07/23 02:43:57;;;;;;;4.05;3.42;;;;;;;16.08;85.42;98120.22;4130990;28;20206;-49
2023/07/23 02:45:59;;;;;;;4.45;3.72;;;;;;;15.96;86.28;98121.78;4128166;28;20941;-50
2023/07/23 02:48:00;;;;;;;5.35;3.70;;;;;;;15.87;86.04;98124.34;4141943;28;20735;-49
2023/07/23 02:50:03;;;;;;;3.65;2.92;;;;;;;15.86;85.81;98127.41;4125445;28;20233;-50
2023/07/23 02:52:05;;;;;;;3.80;3.40;;;;;;;16.01;86.10;98122.53;4129046;28;20256;-50
2023/07/23 02:54:08;;;;;;;4.13;3.83;;;;;;;15.95;86.07;98126.47;4125788;28;20210;-49
2023/07/23 02:56:10;;;;;;;5.07;3.10;;;;;;;15.88;86.01;98123.22;4141919;28;20209;-50
2023/07/23 02:58:12;;;;;;;3.92;3.58;;;;;;;15.86;86.24;98128.22;4120692;28;20214;-49
2023/07/23 03:00:14;;;;;;;6.55;3.63;;;;;;;15.71;87.66;98125.63;4124996;28;20229;-50
2023/07/23 03:02:16;;;;;;;4.03;3.63;;;;;;;15.74;87.07;98127.81;4110924;28;20758;-50
2023/07/23 03:04:17;;;;;;;3.72;3.35;;;;;;;15.70;87.18;98129.50;4141475;28;20256;-49
2023/07/23 03:06:19;;;;;;;3.55;3.17;;;;;;;15.79;87.18;98129.69;4125247;28;20214;-48
2023/07/23 03:08:21;;;;;;;3.90;3.08;;;;;;;15.83;86.99;98133.53;4128190;28;20663;-51
2023/07/23 03:10:22;;;;;;;4.38;2.95;;;;;;;15.74;87.01;98133.34;4124469;28;21046;-49
2023/07/23 03:12:24;;;;;;;3.72;3.10;;;;;;;15.79;87.10;98127.75;4126664;28;20201;-48
2023/07/23 03:14:26;;;;;;;3.58;3.28;;;;;;;15.82;87.12;98137.41;4127931;28;20906;-49
2023/07/23 03:16:28;;;;;;;3.83;3.10;;;;;;;15.70;87.06;98132.25;4129722;28;20214;-49
2023/07/23 03:18:30;;;;;;;3.55;2.75;;;;;;;15.66;86.85;98133.97;4132161;28;20205;-50
2023/07/23 03:20:32;;;;;;;3.97;3.67;;;;;;;15.67;87.22;98138.38;4128749;28;20316;-49
2023/07/23 03:22:33;;;;;;;3.72;3.28;;;;;;;15.86;87.11;98133.75;4129330;28;20726;-51
2023/07/23 03:24:35;;;;;;;3.75;3.33;;;;;;;15.69;87.16;98127.84;4143585;28;20248;-51
2023/07/23 03:26:37;;;;;;;3.75;3.40;;;;;;;15.65;87.13;98132.34;4129391;28;20206;-51
2023/07/23 03:28:39;;;;;;;3.63;2.92;;;;;;;15.66;87.92;98138.66;4128398;28;20238;-51
2023/07/23 03:30:41;;;;;;;3.70;3.20;;;;;;;15.59;87.81;98127.97;4127407;28;20222;-49
2023/07/23 03:32:43;;;;;;;3.47;3.17;;;;;;;15.57;87.78;98141.22;4129973;28;20206;-50
2023/07/23 03:34:45;;;;;;;3.97;3.17;;;;;;;15.57;87.96;98146.72;4128999;28;20209;-50
2023/07/23 03:36:46;;;;;;;3.22;2.92;;;;;;;15.55;88.02;98142.66;4143266;28;20687;-50
2023/07/23 03:38:50;;;;;;;4.10;3.35;;;;;;;15.50;88.17;98140.75;4128571;28;20292;-49
2023/07/23 03:40:51;;;;;;;3.20;2.97;;;;;;;15.53;88.19;98140.19;4126754;28;20210;-50
2023/07/23 03:42:53;;;;;;;3.33;3.03;;;;;;;15.47;88.27;98152.38;4129584;28;20238;-50
2023/07/23 03:44:55;;;;;;;3.50;3.15;;;;;;;15.43;88.24;98147.72;4127232;28;20210;-50
2023/07/23 03:47:12;;;;;;;3.92;3.63;;;;;;;15.44;88.39;98146.59;4143853;28;20252;-51
2023/07/23 03:49:13;;;;;;;3.70;3.40;;;;;;;15.49;88.62;98139.09;4127982;28;20631;-50
2023/07/23 03:51:15;;;;;;;3.60;3.30;;;;;;;15.47;88.66;98141.34;4127901;28;20210;-52
2023/07/23 03:53:17;;;;;;;3.10;2.90;;;;;;;15.45;88.68;98140.81;4123387;28;20603;-50
2023/07/23 03:55:20;;;;;;;3.42;3.17;;;;;;;15.47;88.57;98143.25;4127690;28;20250;-51
2023/07/23 03:57:21;;;;;;;4.68;3.17;;;;;;;15.29;89.84;98144.78;4129001;28;20224;-52
2023/07/23 03:59:38;;;;;;;8.95;3.25;;;;;;;15.32;89.55;98144.25;4129267;28;20769;-52
2023/07/23 04:01:39;;;;;;;6.10;3.97;;;;;;;15.39;89.33;98132.88;4128152;28;20206;-50
2023/07/23 04:03:41;;;;;;;4.43;4.03;;;;;;;15.39;89.12;98143.91;4127458;28;20230;-52
2023/07/23 04:05:43;;;;;;;4.00;3.70;;;;;;;15.44;88.64;98136.38;4128484;28;20279;-49
2023/07/23 04:07:45;;;;;;;5.97;3.75;;;;;;;15.49;88.49;98139.09;4128848;28;20218;-49
2023/07/23 04:09:46;;;;;;;3.60;3.28;;;;;;;15.48;88.57;98142.97;4145074;28;20240;-50
2023/07/23 04:11:48;;;;;;;4.25;2.97;;;;;;;15.51;88.41;98139.63;4128112;28;20714;-50
2023/07/23 04:13:50;;;;;;;7.18;3.75;;;;;;;15.53;88.33;98137.41;4127794;28;20328;-49
2023/07/23 04:15:52;;;;;;;3.47;3.17;;;;;;;15.57;88.22;98140.41;4125293;28;20608;-50
2023/07/23 04:17:54;;;;;;;4.68;2.63;;;;;;;15.59;88.23;98138.19;4128207;28;20217;-50
2023/07/23 04:19:55;;;;;;;3.42;3.13;;;;;;;15.65;88.19;98140.63;4131973;28;20253;-51
2023/07/23 04:21:57;;;;;;;3.22;3.00;;;;;;;15.67;87.98;98135.63;4144719;28;20234;-50
2023/07/23 04:24:00;;;;;;;3.45;3.13;;;;;;;15.72;88.04;98134.72;4131586;28;20651;-51
2023/07/23 04:26:05;;;;;;;3.53;3.22;;;;;;;15.85;88.11;98132.13;4127298;28;20210;-50
2023/07/23 04:28:07;;;;;;;3.40;3.10;;;;;;;15.77;88.13;98135.50;4128349;28;20681;-50
2023/07/23 04:30:09;;;;;;;3.58;3.28;;;;;;;15.82;88.13;98149.25;4145321;28;20315;-53
2023/07/23 04:32:11;;;;;;;4.40;2.83;;;;;;;15.87;87.98;98151.13;4129202;28;20249;-52
2023/07/23 04:34:12;;;;;;;3.25;2.92;;;;;;;15.85;88.05;98151.44;4143728;28;20224;-53
2023/07/23 04:36:15;;;;;;;4.18;2.45;;;;;;;15.93;86.50;98145.25;4126786;28;20218;-51
2023/07/23 04:38:16;;;;;;;2.63;2.30;;;;;;;16.00;86.01;98145.72;4127440;28;20225;-50
2023/07/23 04:40:18;;;;;;;3.05;2.20;;;;;;;16.14;85.04;98146.66;4128541;28;20265;-50
2023/07/23 04:42:20;;;;;;;5.28;2.22;;;;;;;16.23;84.68;98149.59;4127298;28;20366;-51
2023/07/23 04:44:22;;;;;;;2.70;2.40;;;;;;;16.31;83.42;98141.50;4128338;28;20650;-51
2023/07/23 04:46:23;;;;;;;4.15;2.95;;;;;;;16.40;82.61;98142.50;4126331;28;20268;-52
2023/07/23 04:48:25;;;;;;;5.38;2.58;;;;;;;16.51;82.08;98141.25;4129540;28;20221;-50
2023/07/23 04:50:27;;;;;;;2.28;2.08;;;;;;;16.56;81.26;98149.44;4143763;28;20217;-50
2023/07/23 04:52:28;;;;;;;2.30;2.10;;;;;;;16.57;81.45;98153.84;4143403;28;20680;-50
2023/07/23 04:54:30;;;;;;;3.20;2.03;;;;;;;16.69;80.69;98153.44;4127214;28;20210;-50
2023/07/23 04:56:32;;;;;;;2.08;1.88;;;;;;;16.75;80.06;98155.81;4142360;28;20304;-50
2023/07/23 04:58:34;;;;;;;2.13;1.73;;;;;;;16.72;80.66;98150.91;4126781;28;20218;-52
2023/07/23 05:00:36;;;;;;;2.53;2.33;;;;;;;16.79;79.94;98159.63;4111613;28;20215;-50
2023/07/23 05:02:37;;;;;;;3.38;2.25;;;;;;;16.86;79.28;98148.19;4142236;28;20230;-50
2023/07/23 05:04:39;;;;;;;5.05;2.35;;;;;;;16.84;79.45;98150.44;4127908;28;20214;-50
2023/07/23 05:06:41;;;;;;;2.75;2.00;;;;;;;16.83;79.73;98154.34;4128015;28;20272;-50
2023/07/23 05:08:43;;;;;;;2.25;1.75;;;;;;;16.81;80.45;98151.84;4126703;28;20731;-50
2023/07/23 05:10:45;;;;;;;2.38;2.17;;;;;;;16.85;80.45;98147.38;4124875;28;20269;-51
2023/07/23 05:12:47;;;;;;;1.90;1.75;;;;;;;16.84;80.07;98156.78;4122435;28;20902;-51
2023/07/23 05:14:48;;;;;;;2.33;2.15;;;;;;;16.82;80.52;98150.72;4132791;28;20601;-51
2023/07/23 05:16:50;;;;;;;3.90;2.92;;;;;;;16.89;79.70;98144.84;4142350;28;20213;-52
2023/07/23 05:18:52;;;;;;;3.97;2.05;;;;;;;16.98;79.38;98146.63;4131117;28;20430;-51
2023/07/23 05:20:54;;;;;;;3.90;1.65;;;;;;;17.04;79.31;98150.94;4141630;28;20229;-50
2023/07/23 05:22:56;;;;;;;3.78;1.85;;;;;;;16.99;79.69;98145.50;4127040;28;20222;-50
2023/07/23 05:24:57;;;;;;;2.13;1.92;;;;;;;17.03;79.60;98149.31;4111219;28;20218;-49
2023/07/23 05:26:59;;;;;;;2.97;1.90;;;;;;;16.99;79.82;98151.03;4125629;28;20230;-52
2023/07/23 05:29:01;;;;;;;5.85;1.85;;;;;;;17.09;79.76;98153.63;4119323;28;20230;-51
2023/07/23 05:31:03;;;;;;;1.92;1.70;;;;;;;17.14;79.13;98153.56;4126787;28;21942;-50
2023/07/23 05:33:05;;;;;;;1.60;1.50;;;;;;;17.18;78.54;98151.84;4127169;28;20214;-49
2023/07/23 05:35:09;;;;;;;1.85;1.73;;;;;;;17.15;78.93;98141.38;4127381;28;20210;-52
2023/07/23 05:37:11;;;;;;;3.63;1.75;;;;;;;17.15;78.93;98147.72;4126033;28;20209;-52
2023/07/23 05:39:13;;;;;;;1.83;1.63;;;;;;;17.23;78.60;98144.28;4130621;28;20688;-49
2023/07/23 05:41:15;;;;;;;2.40;2.20;;;;;;;17.26;78.50;98142.84;4115143;28;20215;-49
2023/07/23 05:43:17;;;;;;;2.40;1.80;;;;;;;17.34;78.16;98139.41;4130964;28;20641;-49
2023/07/23 05:45:19;;;;;;;6.25;1.90;;;;;;;17.34;78.10;98153.22;4121419;28;20210;-49
2023/07/23 05:47:21;;;;;;;2.28;1.85;;;;;;;17.39;77.68;98147.66;4142487;28;20307;-49
2023/07/23 05:49:24;;;;;;;2.25;2.05;;;;;;;17.45;77.81;98147.25;4127608;28;20234;-49
2023/07/23 05:51:26;;;;;;;3.08;1.58;;;;;;;17.46;77.62;98148.06;4129803;28;20210;-50
2023/07/23 05:53:29;;;;;;;3.35;1.88;;;;;;;17.58;77.07;98148.41;4127793;28;20256;-48
2023/07/23 05:55:30;;;;;;;4.63;2.33;;;;;;;17.55;77.04;98151.78;4111053;28;20216;-49
2023/07/23 05:57:32;;;;;;;4.72;1.30;;;;;;;17.67;76.56;98155.72;4126658;28;20206;-50
2023/07/23 05:59:34;;;;;;;3.05;1.42;;;;;;;17.66;76.42;98153.25;4126037;28;20715;-50
2023/07/23 06:01:36;;;;;;;2.03;1.83;;;;;;;17.70;76.75;98165.34;4139847;28;20225;-49
2023/07/23 06:03:37;;;;;;;1.92;1.80;;;;;;;17.71;77.00;98159.50;4126929;28;20230;-49
2023/07/23 06:05:53;;;;;;;3.05;1.60;;;;;;;17.68;77.19;98156.53;4126639;28;20213;-49
2023/07/23 06:07:55;;;;;;;4.32;1.58;;;;;;;17.72;77.27;98152.03;4126005;28;20217;-49
2023/07/23 06:09:57;;;;;;;1.48;1.17;;;;;;;17.83;76.56;98159.00;4125199;28;20312;-49
2023/07/23 06:11:59;;;;;;;1.48;1.38;;;;;;;17.87;76.37;98160.03;4142075;28;20205;-48
2023/07/23 06:14:00;;;;;;;3.20;1.40;;;;;;;17.97;75.88;98159.84;4142735;28;20201;-48
2023/07/23 06:16:02;;;;;;;3.55;1.38;;;;;;;17.97;76.43;98154.31;4126912;28;20672;-50
2023/07/23 06:18:04;;;;;;;1.98;1.55;;;;;;;17.99;77.16;98169.47;4141917;28;20202;-49
2023/07/23 06:20:07;;;;;;;3.03;1.40;;;;;;;18.06;76.46;98158.03;4125938;28;20241;-50
2023/07/23 06:22:08;;;;;;;2.10;1.63;;;;;;;18.06;76.76;98169.09;4125069;28;20272;-51
2023/07/23 06:24:10;;;;;;;2.30;1.88;;;;;;;18.08;76.99;98166.84;4126029;28;20214;-50
2023/07/23 06:26:13;;;;;;;2.90;1.73;;;;;;;18.15;77.11;98164.47;4124718;28;20660;-49
2023/07/23 06:28:15;;;;;;;1.90;1.42;;;;;;;18.12;77.40;98157.59;4128129;28;20220;-50
2023/07/23 06:30:17;;;;;;;2.92;2.72;;;;;;;18.20;77.32;98164.38;4121838;28;20225;-50
2023/07/23 06:32:18;;;;;;;1.73;1.63;;;;;;;18.19;77.13;98173.81;4120147;28;20276;-51
2023/07/23 06:34:20;;;;;;;2.38;1.27;;;;;;;18.23;76.80;98163.75;4126402;28;20210;-50
2023/07/23 06:36:22;;;;;;;1.70;1.60;;;;;;;18.23;76.86;98166.53;4128703;28;20580;-51
2023/07/23 06:38:24;;;;;;;2.05;1.50;;;;;;;18.24;76.68;98165.44;4141562;28;20225;-50
2023/07/23 06:40:26;;;;;;;1.80;1.70;;;;;;;18.27;77.35;98164.78;4120618;28;20218;-50
2023/07/23 06:42:27;;;;;;;1.50;1.40;;;;;;;18.28;76.66;98161.72;4124662;28;20264;-50
2023/07/23 06:44:29;;;;;;;2.90;1.58;;;;;;;18.35;76.68;98172.41;4120616;28;20258;-49
2023/07/23 06:46:31;;;;;;;1.20;1.08;;;;;;;18.26;77.13;98168.69;4118882;28;20202;-50
2023/07/23 06:48:33;;;;;;;1.77;1.40;;;;;;;18.31;77.02;98168.63;4126376;28;20225;-51
2023/07/23 06:50:36;;;;;;;1.92;1.20;;;;;;;18.33;77.56;98169.94;4126176;28;20235;-49
2023/07/23 06:52:38;;;;;;;1.38;1.27;;;;;;;18.34;77.68;98168.00;4127973;28;20213;-50
2023/07/23 06:54:42;;;;;;;1.70;1.30;;;;;;;18.32;77.48;98162.75;4126533;28;20198;-49
2023/07/23 06:56:44;;;;;;;1.55;1.23;;;;;;;18.38;77.98;98166.28;4127255;28;20293;-50
2023/07/23 06:58:46;;;;;;;3.03;1.15;;;;;;;18.38;77.50;98160.72;4126351;28;20246;-49
2023/07/23 07:00:48;;;;;;;1.40;1.30;;;;;;;18.45;77.73;98163.91;4125392;28;20251;-49
2023/07/23 07:02:49;;;;;;;2.15;1.80;;;;;;;18.42;77.97;98161.72;4109657;28;20695;-50
2023/07/23 07:04:51;;;;;;;2.63;1.55;;;;;;;18.34;77.49;98159.69;4142830;28;20259;-51
2023/07/23 07:06:53;;;;;;;1.60;1.50;;;;;;;18.38;78.29;98155.19;4113045;28;20309;-50
2023/07/23 07:08:55;;;;;;;1.48;1.38;;;;;;;18.39;78.19;98154.06;4125963;28;20229;-50
2023/07/23 07:10:58;;;;;;;1.55;1.10;;;;;;;18.48;78.17;98149.41;4129908;28;20209;-49
2023/07/23 07:12:59;;;;;;;1.50;1.40;;;;;;;18.54;78.50;98159.25;4118282;28;20206;-52
2023/07/23 07:15:01;;;;;;;4.78;1.33;;;;;;;18.55;78.52;98155.34;4142768;28;20378;-49
2023/07/23 07:17:03;;;;;;;1.58;1.25;;;;;;;18.60;77.44;98149.72;4130805;28;20218;-49
2023/07/23 07:19:07;;;;;;;1.67;1.10;;;;;;;18.57;78.15;98153.13;4126101;28;20324;-49
2023/07/23 07:21:08;;;;;;;1.92;1.30;;;;;;;18.67;77.83;98158.44;4124722;28;20214;-50
2023/07/23 07:23:10;;;;;;;1.83;1.63;;;;;;;18.77;78.18;98155.44;4129348;28;20225;-50
2023/07/23 07:25:12;;;;;;;1.60;1.25;;;;;;;18.80;77.75;98152.88;4141327;28;20217;-51
2023/07/23 07:27:15;;;;;;;2.22;1.40;;;;;;;18.91;78.55;98153.44;4125312;28;20655;-53
2023/07/23 07:29:17;;;;;;;3.03;1.40;;;;;;;18.89;77.65;98150.97;4125456;28;20252;-51
2023/07/23 07:31:18;;;;;;;1.05;0.90;;;;;;;18.97;77.40;98155.78;4123266;28;20221;-49
2023/07/23 07:33:20;;;;;;;1.83;1.20;;;;;;;18.95;77.17;98148.91;4125745;28;20198;-45
2023/07/23 07:35:22;;;;;;;3.47;0.95;;;;;;;19.04;77.00;98158.13;4126786;28;20213;-48
2023/07/23 07:37:24;;;;;;;1.77;1.08;;;;;;;19.12;76.71;98149.06;4126088;28;20261;-47
2023/07/23 07:39:26;;;;;;;1.38;1.00;;;;;;;19.15;77.34;98156.75;4123930;28;20790;-48
2023/07/23 07:41:28;;;;;;;1.10;1.00;;;;;;;19.12;76.27;98151.84;4118683;28;20210;-47
2023/07/23 07:43:30;;;;;;;1.98;1.05;;;;;;;19.14;76.88;98158.72;4124242;28;20273;-46
2023/07/23 07:45:32;;;;;;;1.15;1.05;;;;;;;19.24;76.19;98152.13;4126466;28;20273;-47
2023/07/23 07:47:33;;;;;;;1.63;1.15;;;;;;;19.42;75.32;98160.28;4125491;28;20277;-49
2023/07/23 07:49:35;;;;;;;1.45;1.00;;;;;;;19.48;74.99;98147.91;4116169;28;20227;-49
2023/07/23 07:51:38;;;;;;;1.70;0.80;;;;;;;19.44;74.70;98157.19;4125808;28;20612;-48
2023/07/23 07:53:40;;;;;;;1.23;1.00;;;;;;;19.67;74.66;98156.03;4109593;28;20310;-48
2023/07/23 07:55:42;;;;;;;1.48;1.13;;;;;;;19.85;73.31;98141.91;4140719;28;20209;-48
2023/07/23 07:57:44;;;;;;;1.05;0.95;;;;;;;20.22;73.33;98152.59;4124462;28;20214;-52
2023/07/23 07:59:47;;;;;;;1.35;1.10;;;;;;;20.41;70.58;98152.31;4129417;28;20226;-50
2023/07/23 08:01:49;;;;;;;1.52;0.90;;;;;;;20.53;71.45;98146.97;4129501;28;20257;-49
2023/07/23 08:03:51;;;;;;;0.88;0.88;;;;;;;20.54;70.83;98148.59;4127241;28;20230;-50
2023/07/23 08:05:55;;;;;;;1.23;1.00;;;;;;;20.48;71.12;98152.66;4126883;28;20322;-49
2023/07/23 08:07:58;;;;;;;1.70;1.00;;;;;;;20.46;71.15;98138.28;4127938;28;20215;-50
2023/07/23 08:10:00;;;;;;;1.02;0.93;;;;;;;20.57;71.64;98142.41;4127827;28;20229;-47
2023/07/23 08:12:04;;;;;;;0.93;0.90;;;;;;;20.76;70.39;98156.81;4128611;28;20214;-47
2023/07/23 08:14:06;;;;;;;1.08;0.90;;;;;;;20.44;70.39;98149.72;4119029;28;20217;-50
2023/07/23 08:16:12;;;;;;;2.15;0.90;;;;;;;20.31;71.34;98150.66;4120121;28;20210;-50
2023/07/23 08:18:17;;;;;;;2.13;1.38;;;;;;;20.26;71.51;98145.22;4129921;28;20210;-50
2023/07/23 08:20:22;;;;;;;1.02;0.85;;;;;;;20.34;71.78;98147.25;4128123;28;20210;-50
2023/07/23 08:22:24;;;;;;;1.70;1.00;;;;;;;20.67;71.17;98147.66;4127481;28;20214;-49
2023/07/23 08:24:26;;;;;;;1.15;0.85;;;;;;;21.11;70.31;98144.63;4128215;28;20256;-49
2023/07/23 08:26:30;;;;;;;0.80;0.80;;;;;;;21.41;69.10;98146.41;4129103;28;20292;-49
2023/07/23 08:28:34;;;;;;;3.50;1.00;;;;;;;21.39;67.71;98143.16;4112035;28;20261;-49
2023/07/23 08:30:36;;;;;;;0.80;0.80;;;;;;;21.73;67.28;98140.34;4128834;28;20260;-49
2023/07/23 08:32:38;;;;;;;1.27;0.98;;;;;;;21.97;65.77;98141.41;4128618;28;20667;-49
2023/07/23 08:34:40;;;;;;;1.10;1.00;;;;;;;22.00;66.50;98148.28;4131984;28;20241;-51
2023/07/23 08:36:42;;;;;;;1.88;0.90;;;;;;;22.16;64.80;98141.84;4126852;28;20210;-49
2023/07/23 08:38:44;;;;;;;1.20;0.90;;;;;;;21.93;65.62;98148.81;4127718;28;20243;-48
2023/07/23 08:40:46;;;;;;;0.80;0.80;;;;;;;21.89;65.15;98136.69;4112792;28;20212;-48
2023/07/23 08:42:55;;;;;;;1.00;0.90;;;;;;;22.48;64.15;98129.25;4132158;28;20204;-49
2023/07/23 08:45:17;;;;;;;0.82;0.82;;;;;;;22.17;64.19;98134.31;4111492;28;20201;-47
2023/07/23 08:47:21;;;;;;;0.90;0.75;;;;;;;22.37;63.35;98142.72;4127572;28;20209;-48
2023/07/23 08:49:23;;;;;;;1.45;1.20;;;;;;;22.49;63.83;98131.72;4127707;28;20731;-47
2023/07/23 08:51:26;;;;;;;1.15;1.05;;;;;;;22.84;62.95;98132.34;4115107;28;20222;-47
2023/07/23 08:53:33;;;;;;;1.30;1.00;;;;;;;22.78;62.54;98125.31;4126006;28;20214;-47
2023/07/23 08:55:35;;;;;;;1.50;0.98;;;;;;;23.22;62.06;98119.06;4111851;28;20221;-47
2023/07/23 08:57:38;;;;;;;0.80;0.80;;;;;;;23.32;61.02;98135.44;4127356;28;20260;-46
2023/07/23 08:59:41;;;;;;;0.90;0.90;;;;;;;23.55;59.93;98117.13;4111934;28;20713;-48
2023/07/23 09:01:43;;;;;;;0.85;0.70;;;;;;;23.28;59.29;98134.47;4127110;28;20224;-47
2023/07/23 09:03:45;;;;;;;1.15;0.82;;;;;;;23.55;59.65;98129.13;4143656;28;20271;-47
2023/07/23 09:05:47;;;;;;;1.00;0.88;;;;;;;23.67;58.95;98118.81;4124908;28;20221;-48
2023/07/23 09:07:48;;;;;;;0.90;0.70;;;;;;;23.63;58.85;98114.25;4142514;28;20205;-47
2023/07/23 09:09:50;;;;;;;1.15;0.90;;;;;;;23.74;59.13;98116.25;4124473;28;20233;-48
2023/07/23 09:11:52;;;;;;;3.08;1.17;;;;;;;23.73;58.21;98101.81;4123117;28;20214;-49
2023/07/23 09:13:57;;;;;;;0.95;0.93;;;;;;;23.92;58.49;98117.75;4127830;28;20284;-47
2023/07/23 09:15:59;;;;;;;3.42;0.90;;;;;;;23.56;56.93;98124.38;4125975;28;20637;-47
2023/07/23 09:18:02;;;;;;;2.47;0.68;;;;;;;23.26;58.05;98125.63;4128186;28;20209;-46
2023/07/23 09:20:09;;;;;;;1.38;1.00;;;;;;;23.52;56.81;98126.22;4142743;28;20228;-47
2023/07/23 09:22:11;;;;;;;0.80;0.80;;;;;;;23.58;56.21;98120.03;4126588;28;20868;-47
2023/07/23 09:24:14;;;;;;;1.98;0.95;;;;;;;23.39;56.77;98124.53;4126444;28;20655;-46
2023/07/23 09:26:19;;;;;;;3.70;1.00;;;;;;;23.26;57.71;98128.41;4126817;28;20224;-46
2023/07/23 09:28:22;;;;;;;1.55;1.00;;;;;;;23.03;57.99;98124.31;4110160;28;20668;-47
2023/07/23 09:30:25;;;;;;;1.42;1.02;;;;;;;22.96;58.43;98115.66;4125634;28;20220;-48
2023/07/23 09:32:27;;;;;;;1.27;1.00;;;;;;;23.56;59.03;98097.22;4127588;28;20209;-47
2023/07/23 09:34:28;;;;;;;1.83;0.98;;;;;;;24.02;57.00;98111.72;4120490;28;20671;-47
2023/07/23 09:36:30;;;;;;;1.77;1.13;;;;;;;24.38;56.00;98108.94;4132760;28;20212;-49